Time,TemperatureF,DewpointF,PressureIn,WindDirection,WindDirectionDegrees,WindSpeedMPH,WindSpeedGustMPH,Humidity,HourlyPrecipIn,Conditions,Clouds,dailyrainin,SolarRadiationWatts/m^2,SoftwareType,DateUTC
2013-09-26 01:00:00,44.0,44.0,-100.00,WSW,247,0.0,-999.0,101,-99.99,,,-99.99,0.000000,,2013-09-26 05:00:00,
2013-09-26 01:52:00,44.0,44.0,-100.00,WSW,247,0.0,-999.0,101,-99.99,,,-99.99,0.000000,,2013-09-26 05:52:00,
2013-09-26 02:00:00,43.0,43.0,-100.00,WNW,292,0.0,-999.0,101,-99.99,,,-99.99,0.000000,,2013-09-26 06:00:00,
2013-09-26 02:42:00,43.0,43.0,-100.00,WNW,292,0.0,-999.0,101,-99.99,,,-99.99,0.000000,,2013-09-26 06:42:00,
2013-09-26 02:53:00,43.0,43.0,-100.00,WNW,292,0.0,-999.0,101,-99.99,,,-99.99,0.000000,,2013-09-26 06:53:00,
2013-09-26 03:00:00,44.0,44.0,-100.00,SE,135,0.0,-999.0,102,-99.99,,,-99.99,0.000000,,2013-09-26 07:00:00,
2013-09-26 03:42:00,44.0,44.0,-100.00,SE,135,0.0,-999.0,102,-99.99,,,-99.99,0.000000,,2013-09-26 07:42:00,
2013-09-26 03:53:00,44.0,44.0,-100.00,SE,135,0.0,-999.0,102,-99.99,,,-99.99,0.000000,,2013-09-26 07:53:00,
2013-09-26 04:00:00,43.0,43.0,-100.00,NE,45,0.0,-999.0,102,-99.99,,,-99.99,0.000000,,2013-09-26 08:00:00,
2013-09-26 04:42:00,43.0,43.0,-100.00,NE,45,0.0,-999.0,102,-99.99,,,-99.99,0.000000,,2013-09-26 08:42:00,
2013-09-26 04:52:00,43.0,43.0,-100.00,NE,45,0.0,-999.0,102,-99.99,,,-99.99,0.000000,,2013-09-26 08:52:00,
2013-09-26 05:00:00,43.0,43.0,-100.00,NE,45,0.0,-999.0,102,-99.99,,,-99.99,0.000000,,2013-09-26 09:00:00,
2013-09-26 05:43:00,43.0,43.0,-100.00,NE,45,0.0,-999.0,102,-99.99,,,-99.99,0.000000,,2013-09-26 09:43:00,
2013-09-26 05:54:00,43.0,43.0,-100.00,NE,45,0.0,-999.0,102,-99.99,,,-99.99,0.000000,,2013-09-26 09:54:00,
2013-09-26 06:00:00,43.0,43.0,-100.00,NE,45,0.0,-999.0,103,-99.99,,,-99.99,0.000000,,2013-09-26 10:00:00,
2013-09-26 06:42:00,43.0,43.0,-100.00,NE,45,0.0,-999.0,103,-99.99,,,-99.99,0.000000,,2013-09-26 10:42:00,
2013-09-26 06:53:00,43.0,43.0,-100.00,NE,45,0.0,-999.0,103,-99.99,,,-99.99,0.000000,,2013-09-26 10:53:00,
2013-09-26 10:00:00,55.0,54.0,-100.00,NE,45,1.0,-999.0,98,-99.99,,,-99.99,309.720001,,2013-09-26 14:00:00,
2013-09-26 10:42:00,55.0,54.0,-100.00,NE,45,1.0,-999.0,98,-99.99,,,-99.99,309.720001,,2013-09-26 14:42:00,
2013-09-26 10:52:00,55.0,54.0,-100.00,NE,45,1.0,-999.0,98,-99.99,,,-99.99,309.720001,,2013-09-26 14:52:00,
2013-09-26 11:00:00,63.0,55.0,-100.00,ENE,67,1.0,-999.0,74,-99.99,,,-99.99,472.119995,,2013-09-26 15:00:00,
2013-09-26 11:44:00,63.0,55.0,-100.00,ENE,67,1.0,-999.0,74,-99.99,,,-99.99,472.119995,,2013-09-26 15:44:00,
2013-09-26 11:54:00,63.0,55.0,-100.00,ENE,67,1.0,-999.0,74,-99.99,,,-99.99,472.119995,,2013-09-26 15:54:00,
2013-09-26 12:00:00,68.0,53.0,-100.00,East,90,4.0,-999.0,58,-99.99,,,-99.99,607.840027,,2013-09-26 16:00:00,
2013-09-26 12:43:00,68.0,53.0,-100.00,East,90,4.0,-999.0,58,-99.99,,,-99.99,607.840027,,2013-09-26 16:43:00,
2013-09-26 12:54:00,68.0,53.0,-100.00,East,90,4.0,-999.0,58,-99.99,,,-99.99,607.840027,,2013-09-26 16:54:00,
2013-09-26 13:00:00,71.0,51.0,-100.00,East,90,4.0,-999.0,48,-99.99,,,-99.99,694.840027,,2013-09-26 17:00:00,
2013-09-26 13:43:00,71.0,51.0,-100.00,East,90,4.0,-999.0,48,-99.99,,,-99.99,694.840027,,2013-09-26 17:43:00,
2013-09-26 13:52:00,71.0,51.0,-100.00,East,90,4.0,-999.0,48,-99.99,,,-99.99,694.840027,,2013-09-26 17:52:00,
2013-09-26 14:00:00,74.0,46.0,-100.00,ESE,112,5.0,-999.0,37,-99.99,,,-99.99,731.960022,,2013-09-26 18:00:00,
2013-09-26 14:42:00,74.0,46.0,-100.00,ESE,112,5.0,-999.0,37,-99.99,,,-99.99,731.960022,,2013-09-26 18:42:00,
2013-09-26 14:52:00,74.0,46.0,-100.00,ESE,112,5.0,-999.0,37,-99.99,,,-99.99,731.960022,,2013-09-26 18:52:00,
2013-09-26 15:00:00,76.0,45.0,-100.00,ESE,112,5.0,-999.0,32,-99.99,,,-99.99,708.760010,,2013-09-26 19:00:00,
2013-09-26 15:44:00,76.0,45.0,-100.00,ESE,112,5.0,-999.0,32,-99.99,,,-99.99,708.760010,,2013-09-26 19:44:00,
2013-09-26 15:52:00,76.0,45.0,-100.00,ESE,112,5.0,-999.0,32,-99.99,,,-99.99,708.760010,,2013-09-26 19:52:00,
2013-09-26 16:00:00,78.0,44.0,-100.00,ESE,112,3.0,-999.0,30,-99.99,,,-99.99,629.880005,,2013-09-26 20:00:00,
2013-09-26 16:43:00,78.0,44.0,-100.00,ESE,112,3.0,-999.0,30,-99.99,,,-99.99,629.880005,,2013-09-26 20:43:00,
2013-09-26 16:52:00,78.0,44.0,-100.00,ESE,112,3.0,-999.0,30,-99.99,,,-99.99,629.880005,,2013-09-26 20:52:00,
2013-09-26 17:00:00,78.0,43.0,-100.00,ESE,112,3.0,-999.0,28,-99.99,,,-99.99,499.959991,,2013-09-26 21:00:00,
2013-09-26 17:44:00,78.0,43.0,-100.00,ESE,112,3.0,-999.0,28,-99.99,,,-99.99,499.959991,,2013-09-26 21:44:00,
2013-09-26 17:54:00,78.0,43.0,-100.00,ESE,112,3.0,-999.0,28,-99.99,,,-99.99,499.959991,,2013-09-26 21:54:00,
2013-09-26 18:00:00,78.0,44.0,-100.00,East,90,2.0,-999.0,29,-99.99,,,-99.99,335.239990,,2013-09-26 22:00:00,
2013-09-26 18:43:00,78.0,44.0,-100.00,East,90,2.0,-999.0,29,-99.99,,,-99.99,335.239990,,2013-09-26 22:43:00,
2013-09-26 18:54:00,78.0,44.0,-100.00,East,90,2.0,-999.0,29,-99.99,,,-99.99,335.239990,,2013-09-26 22:54:00,
2013-09-26 19:00:00,77.0,49.0,-100.00,East,90,1.0,-999.0,38,-99.99,,,-99.99,156.600006,,2013-09-26 23:00:00,
2013-09-26 19:43:00,77.0,49.0,-100.00,East,90,1.0,-999.0,38,-99.99,,,-99.99,156.600006,,2013-09-26 23:43:00,
2013-09-26 19:53:00,77.0,49.0,-100.00,East,90,1.0,-999.0,38,-99.99,,,-99.99,156.600006,,2013-09-26 23:53:00,
2013-09-26 21:00:00,55.0,52.0,-100.00,NNE,22,0.0,-999.0,88,-99.99,,,-99.99,0.000000,,2013-09-27 01:00:00,
2013-09-26 21:42:00,55.0,52.0,-100.00,NNE,22,0.0,-999.0,88,-99.99,,,-99.99,0.000000,,2013-09-27 01:42:00,
2013-09-26 21:52:00,55.0,52.0,-100.00,NNE,22,0.0,-999.0,88,-99.99,,,-99.99,0.000000,,2013-09-27 01:52:00,
2013-09-26 23:00:00,54.0,50.0,-100.00,ENE,67,1.0,-999.0,86,-99.99,,,-99.99,0.000000,,2013-09-27 03:00:00,
2013-09-26 23:45:00,54.0,50.0,-100.00,ENE,67,1.0,-999.0,86,-99.99,,,-99.99,0.000000,,2013-09-27 03:45:00,
2013-09-26 23:55:00,54.0,50.0,-100.00,ENE,67,1.0,-999.0,86,-99.99,,,-99.99,0.000000,,2013-09-27 03:55:00,